Time;durP1;ratioP1;P1;durP2;ratioP2;P2;SDS_P1;SDS_P2;PMS_P1;PMS_P2;Temp;Humidity;BMP_temperature;BMP_pressure;BME280_temperature;BME280_humidity;BME280_pressure;Samples;Min_cycle;Max_cycle;Signal;HPM_P1;HPM_P2
2021/12/19 00:10:13;;;;;;;12.68;10.98;;;;;;;;;;10239083;28;20493;-56
2021/12/19 00:15:11;;;;;;;9.85;8.68;;;;;;;;;;10241310;28;20069;-55
2021/12/19 00:20:10;;;;;;;11.00;9.32;;;;;;;;;;10238584;28;20079;-56
2021/12/19 00:25:30;;;;;;;12.10;8.73;;;;;;;;;;10264317;28;20076;-57
2021/12/19 00:30:28;;;;;;;10.00;7.65;;;;;;;;;;10270545;28;20119;-58
2021/12/19 00:35:27;;;;;;;14.75;11.05;;;;;;;;;;10271285;28;20053;-58
2021/12/19 00:40:25;;;;;;;10.27;8.95;;;;;;;;;;10270052;28;20613;-56
2021/12/19 00:45:28;;;;;;;12.23;9.73;;;;;;;;;;10266388;28;20770;-59
2021/12/19 00:50:27;;;;;;;12.45;10.20;;;;;;;;;;10266339;28;20076;-57
2021/12/19 00:55:27;;;;;;;11.75;9.98;;;;;;;;;;10252948;28;20065;-55
2021/12/19 01:00:29;;;;;;;11.95;9.45;;;;;;;;;;10240381;28;20073;-57
2021/12/19 01:05:28;;;;;;;8.48;7.57;;;;;;;;;;10226961;28;20057;-54
2021/12/19 01:10:27;;;;;;;9.70;8.48;;;;;;;;;;10227528;28;20077;-56
2021/12/19 01:15:26;;;;;;;12.48;10.88;;;;;;;;;;10254679;28;20061;-55
2021/12/19 01:20:26;;;;;;;12.05;9.80;;;;;;;;;;10255345;28;20069;-55
2021/12/19 01:25:24;;;;;;;27.67;17.13;;;;;;;;;;10236590;28;20486;-54
2021/12/19 01:30:23;;;;;;;20.23;14.70;;;;;;;;;;10238175;28;20073;-56
2021/12/19 01:35:24;;;;;;;19.23;13.77;;;;;;;;;;10238080;28;20458;-54
2021/12/19 01:40:23;;;;;;;12.57;9.43;;;;;;;;;;10238025;28;20076;-57
2021/12/19 01:45:25;;;;;;;24.95;18.08;;;;;;;;;;10249664;28;20077;-55
2021/12/19 01:50:25;;;;;;;10.95;9.07;;;;;;;;;;10271332;28;20084;-57
2021/12/19 01:55:23;;;;;;;9.45;7.13;;;;;;;;;;10276312;28;20497;-54
2021/12/19 02:00:23;;;;;;;9.27;7.53;;;;;;;;;;10275833;28;20568;-55
2021/12/19 02:05:22;;;;;;;11.00;7.50;;;;;;;;;;10261143;28;20041;-55
2021/12/19 02:10:23;;;;;;;8.05;6.85;;;;;;;;;;10235884;28;20072;-57
2021/12/19 02:15:22;;;;;;;7.88;7.10;;;;;;;;;;10236788;28;20103;-56
2021/12/19 02:20:22;;;;;;;8.35;7.15;;;;;;;;;;10236870;28;20076;-55
2021/12/19 02:25:20;;;;;;;11.35;7.65;;;;;;;;;;10236600;28;20061;-55
2021/12/19 02:30:18;;;;;;;7.28;6.28;;;;;;;;;;10249007;28;20549;-56
2021/12/19 02:35:21;;;;;;;7.82;6.57;;;;;;;;;;10234232;28;20069;-56
2021/12/19 02:40:33;;;;;;;9.60;6.57;;;;;;;;;;10265696;28;20087;-56
2021/12/19 02:50:55;;;;;;;9.05;6.95;;;;;;;;;;10237036;28;20088;-55
2021/12/19 02:55:55;;;;;;;8.35;6.60;;;;;;;;;;10241049;28;20534;-57
2021/12/19 03:00:53;;;;;;;31.85;18.25;;;;;;;;;;10241175;28;20068;-56
2021/12/19 03:05:52;;;;;;;8.35;7.50;;;;;;;;;;10241402;28;20459;-57
2021/12/19 03:21:24;;;;;;;9.60;8.30;;;;;;;;;;10234892;28;20113;-55
2021/12/19 03:26:22;;;;;;;10.13;7.60;;;;;;;;;;10267533;28;20318;-56
2021/12/19 03:31:22;;;;;;;9.13;7.93;;;;;;;;;;10272975;28;20061;-56
2021/12/19 03:36:20;;;;;;;8.38;7.30;;;;;;;;;;10272844;28;20083;-55
2021/12/19 03:41:22;;;;;;;10.95;7.28;;;;;;;;;;10272266;28;20075;-55
2021/12/19 03:46:20;;;;;;;9.55;7.85;;;;;;;;;;10272131;28;20084;-57
2021/12/19 03:51:20;;;;;;;10.05;8.13;;;;;;;;;;10272330;28;20053;-56
2021/12/19 03:56:18;;;;;;;8.68;7.07;;;;;;;;;;10271284;28;20084;-56
2021/12/19 04:01:17;;;;;;;11.05;7.72;;;;;;;;;;10252397;28;20097;-56
2021/12/19 04:06:15;;;;;;;9.50;8.05;;;;;;;;;;10245540;28;20088;-56
2021/12/19 04:11:15;;;;;;;10.50;8.50;;;;;;;;;;10241768;28;20075;-56
2021/12/19 04:16:13;;;;;;;10.57;8.63;;;;;;;;;;10244382;28;20081;-56
2021/12/19 04:21:12;;;;;;;11.38;6.88;;;;;;;;;;10242999;28;20069;-56
2021/12/19 04:26:10;;;;;;;9.63;8.65;;;;;;;;;;10231986;28;20052;-54
2021/12/19 04:31:09;;;;;;;8.90;7.65;;;;;;;;;;10232210;28;20080;-54
2021/12/19 04:36:10;;;;;;;12.75;8.23;;;;;;;;;;10242787;28;20514;-56
2021/12/19 04:41:41;;;;;;;9.48;7.63;;;;;;;;;;10264074;28;20045;-55
2021/12/19 04:52:23;;;;;;;11.70;8.15;;;;;;;;;;10270491;28;20056;-56
2021/12/19 04:57:31;;;;;;;10.93;8.68;;;;;;;;;;10269622;28;20080;-57
2021/12/19 05:02:43;;;;;;;12.45;9.48;;;;;;;;;;10249752;28;20103;-54
2021/12/19 05:18:15;;;;;;;12.63;9.75;;;;;;;;;;10276438;28;20620;-56
2021/12/19 05:23:22;;;;;;;10.45;8.70;;;;;;;;;;10249044;28;20113;-52
2021/12/19 05:28:20;;;;;;;9.77;8.20;;;;;;;;;;10248827;28;20065;-55
2021/12/19 05:33:20;;;;;;;12.13;8.35;;;;;;;;;;10249114;28;20071;-56
2021/12/19 05:48:53;;;;;;;8.93;7.95;;;;;;;;;;10252204;28;20103;-54
2021/12/19 05:53:51;;;;;;;9.60;8.60;;;;;;;;;;10246261;28;20501;-55
2021/12/19 05:58:49;;;;;;;11.90;8.57;;;;;;;;;;10246946;28;20076;-55
2021/12/19 06:03:48;;;;;;;109.88;60.80;;;;;;;;;;10247052;28;20061;-53
2021/12/19 06:08:47;;;;;;;61.63;35.53;;;;;;;;;;10246443;28;20065;-56
2021/12/19 06:13:46;;;;;;;42.63;28.15;;;;;;;;;;10239661;28;20081;-56
2021/12/19 06:18:44;;;;;;;35.25;23.48;;;;;;;;;;10245402;28;20503;-56
2021/12/19 06:23:42;;;;;;;23.60;17.60;;;;;;;;;;10239690;28;20076;-56
2021/12/19 06:28:42;;;;;;;34.13;22.50;;;;;;;;;;10237235;28;20084;-56
2021/12/19 06:33:40;;;;;;;14.23;11.20;;;;;;;;;;10252842;28;20083;-55
2021/12/19 06:38:39;;;;;;;23.05;16.30;;;;;;;;;;10237672;28;20065;-57
2021/12/19 06:43:37;;;;;;;21.25;14.95;;;;;;;;;;10238680;28;20071;-55
2021/12/19 06:48:37;;;;;;;24.75;18.52;;;;;;;;;;10248471;28;20061;-56
2021/12/19 06:53:36;;;;;;;16.75;12.13;;;;;;;;;;10255903;28;20498;-55
2021/12/19 06:58:34;;;;;;;22.30;18.38;;;;;;;;;;10241046;28;20088;-55
2021/12/19 07:03:32;;;;;;;16.00;11.30;;;;;;;;;;10271235;28;20091;-56
2021/12/19 07:08:32;;;;;;;14.85;12.02;;;;;;;;;;10255326;28;20064;-57
2021/12/19 07:13:31;;;;;;;8.60;7.28;;;;;;;;;;10235212;28;20506;-56
2021/12/19 07:18:29;;;;;;;12.23;9.75;;;;;;;;;;10243837;28;20407;-57
2021/12/19 07:23:28;;;;;;;65.07;13.88;;;;;;;;;;10267147;28;20072;-56
2021/12/19 07:28:28;;;;;;;14.68;11.70;;;;;;;;;;10273431;28;20079;-57
2021/12/19 07:33:26;;;;;;;20.05;15.05;;;;;;;;;;10268831;28;20352;-56
2021/12/19 07:38:30;;;;;;;14.57;9.25;;;;;;;;;;10241696;28;20072;-58
2021/12/19 07:43:30;;;;;;;13.60;10.18;;;;;;;;;;10237819;28;20072;-58
2021/12/19 07:48:28;;;;;;;17.77;13.35;;;;;;;;;;10227597;28;20065;-55
2021/12/19 07:53:27;;;;;;;16.55;13.02;;;;;;;;;;10233371;28;20451;-54
2021/12/19 07:58:26;;;;;;;12.70;9.80;;;;;;;;;;10238236;28;20085;-57
2021/12/19 08:03:25;;;;;;;13.27;11.63;;;;;;;;;;10234122;28;20069;-58
2021/12/19 08:08:28;;;;;;;20.15;15.02;;;;;;;;;;10233413;28;20076;-57
2021/12/19 08:13:26;;;;;;;16.15;10.60;;;;;;;;;;10233052;28;20485;-56
2021/12/19 08:18:26;;;;;;;14.23;12.10;;;;;;;;;;10232723;28;20049;-57
2021/12/19 08:23:24;;;;;;;17.48;12.23;;;;;;;;;;10238903;28;20076;-54
2021/12/19 08:28:22;;;;;;;32.75;20.88;;;;;;;;;;10242813;28;20056;-56
2021/12/19 08:33:21;;;;;;;11.57;9.65;;;;;;;;;;10235073;28;20081;-57
2021/12/19 08:38:21;;;;;;;18.40;14.02;;;;;;;;;;10232016;28;20091;-53
2021/12/19 08:43:20;;;;;;;25.55;16.42;;;;;;;;;;10232609;28;20470;-55
2021/12/19 08:48:18;;;;;;;13.93;11.02;;;;;;;;;;10239683;28;20067;-56
2021/12/19 08:53:17;;;;;;;12.82;9.98;;;;;;;;;;10240965;28;20073;-57
2021/12/19 08:58:16;;;;;;;24.80;13.45;;;;;;;;;;10237331;28;20081;-56
2021/12/19 09:03:16;;;;;;;52.28;46.00;;;;;;;;;;10231964;28;20091;-56
2021/12/19 09:08:14;;;;;;;20.35;15.93;;;;;;;;;;10231286;28;20088;-57
2021/12/19 09:13:13;;;;;;;42.17;27.52;;;;;;;;;;10231500;28;20509;-57
2021/12/19 09:18:12;;;;;;;25.05;13.70;;;;;;;;;;10236052;28;20080;-57
2021/12/19 09:23:11;;;;;;;23.95;17.20;;;;;;;;;;10239637;28;20517;-58
2021/12/19 09:28:10;;;;;;;38.90;29.60;;;;;;;;;;10245985;28;20056;-57
2021/12/19 09:33:08;;;;;;;20.52;16.23;;;;;;;;;;10241533;28;20426;-57
2021/12/19 09:38:08;;;;;;;24.20;19.20;;;;;;;;;;10240964;28;20080;-57
2021/12/19 09:43:10;;;;;;;24.08;17.75;;;;;;;;;;10238624;28;20068;-57
2021/12/19 09:48:08;;;;;;;30.13;17.98;;;;;;;;;;10241631;28;20085;-58
2021/12/19 09:53:08;;;;;;;24.42;15.98;;;;;;;;;;10270496;28;20068;-55
2021/12/19 09:58:07;;;;;;;28.05;18.15;;;;;;;;;;10275755;28;20430;-56
2021/12/19 10:03:05;;;;;;;29.33;17.67;;;;;;;;;;10276887;28;20045;-54
2021/12/19 10:08:04;;;;;;;32.63;21.35;;;;;;;;;;10276416;28;20048;-57
2021/12/19 10:13:04;;;;;;;31.73;18.48;;;;;;;;;;10276316;28;20474;-56
2021/12/19 10:18:05;;;;;;;23.60;15.38;;;;;;;;;;10275961;28;20157;-57
2021/12/19 10:23:09;;;;;;;23.42;18.70;;;;;;;;;;10275837;28;20476;-55
2021/12/19 10:28:10;;;;;;;34.63;23.50;;;;;;;;;;10276104;28;20045;-56
2021/12/19 10:33:09;;;;;;;28.50;20.23;;;;;;;;;;10275445;28;20084;-57
2021/12/19 10:38:11;;;;;;;30.23;20.25;;;;;;;;;;10272560;28;20075;-54
2021/12/19 10:43:16;;;;;;;31.98;22.45;;;;;;;;;;10246882;28;20383;-58
2021/12/19 10:48:14;;;;;;;;;;;;;;;;;;10239632;28;20113;-55
2021/12/19 10:53:13;;;;;;;30.90;20.10;;;;;;;;;;10235817;28;19928;-57
2021/12/19 10:58:22;;;;;;;28.02;17.83;;;;;;;;;;10240247;28;20103;-56
2021/12/19 11:03:33;;;;;;;23.40;15.57;;;;;;;;;;10239079;28;20088;-57
2021/12/19 11:08:31;;;;;;;33.92;19.75;;;;;;;;;;10235356;28;20065;-58
2021/12/19 11:13:31;;;;;;;28.65;19.88;;;;;;;;;;10243103;28;20509;-57
2021/12/19 11:18:30;;;;;;;47.03;23.88;;;;;;;;;;10245703;28;20080;-56
2021/12/19 11:23:28;;;;;;;20.42;13.45;;;;;;;;;;10245379;28;20077;-56
2021/12/19 11:28:31;;;;;;;53.67;30.30;;;;;;;;;;10241682;28;20077;-56
2021/12/19 11:33:38;;;;;;;32.10;21.73;;;;;;;;;;10247837;28;20064;-57
2021/12/19 11:38:37;;;;;;;61.97;39.25;;;;;;;;;;10234068;28;20077;-55
2021/12/19 11:43:38;;;;;;;59.50;34.15;;;;;;;;;;10241596;28;20545;-56
2021/12/19 11:48:36;;;;;;;36.05;19.60;;;;;;;;;;10236650;28;20069;-56
2021/12/19 11:53:35;;;;;;;21.75;16.05;;;;;;;;;;10273005;28;20072;-59
2021/12/19 11:58:42;;;;;;;37.08;20.83;;;;;;;;;;10241993;28;20076;-57
2021/12/19 12:03:48;;;;;;;28.77;17.75;;;;;;;;;;10272162;28;20545;-55
2021/12/19 12:09:02;;;;;;;28.42;19.75;;;;;;;;;;10270790;28;20084;-55
2021/12/19 12:14:15;;;;;;;28.50;18.30;;;;;;;;;;10267505;28;20349;-57
2021/12/19 12:19:14;;;;;;;31.92;21.60;;;;;;;;;;10232941;28;20080;-56
2021/12/19 12:24:17;;;;;;;32.05;21.60;;;;;;;;;;10232478;28;20079;-57
2021/12/19 12:29:15;;;;;;;35.20;23.38;;;;;;;;;;10243227;28;20081;-54
2021/12/19 12:34:16;;;;;;;35.75;26.77;;;;;;;;;;10242916;28;20069;-57
2021/12/19 12:39:18;;;;;;;34.50;24.33;;;;;;;;;;10244914;28;20080;-55
2021/12/19 12:44:17;;;;;;;36.40;25.98;;;;;;;;;;10241060;28;20045;-58
2021/12/19 12:49:17;;;;;;;25.38;17.65;;;;;;;;;;10233812;28;20065;-56
2021/12/19 12:54:18;;;;;;;19.55;14.68;;;;;;;;;;10231880;28;20107;-55
2021/12/19 12:59:18;;;;;;;25.50;17.17;;;;;;;;;;10239274;28;20088;-57
2021/12/19 13:04:18;;;;;;;28.02;18.10;;;;;;;;;;10240490;28;20068;-58
2021/12/19 13:09:18;;;;;;;23.88;16.73;;;;;;;;;;10233357;28;20087;-57
2021/12/19 13:14:18;;;;;;;31.88;20.80;;;;;;;;;;10231944;28;20664;-57
2021/12/19 13:19:35;;;;;;;28.08;20.10;;;;;;;;;;10231889;28;20092;-56
2021/12/19 13:24:35;;;;;;;33.50;20.73;;;;;;;;;;10274234;28;20490;-56
2021/12/19 13:29:34;;;;;;;24.08;15.90;;;;;;;;;;10267911;28;20516;-56
2021/12/19 13:34:38;;;;;;;24.90;18.48;;;;;;;;;;10238950;28;20095;-56
2021/12/19 13:39:38;;;;;;;23.80;18.47;;;;;;;;;;10272030;28;20072;-55
2021/12/19 13:44:36;;;;;;;35.63;23.92;;;;;;;;;;10277867;28;20436;-54
2021/12/19 13:49:34;;;;;;;26.85;21.13;;;;;;;;;;10270786;28;20073;-56
2021/12/19 13:54:34;;;;;;;40.33;26.73;;;;;;;;;;10248240;28;20069;-56
2021/12/19 13:59:40;;;;;;;35.67;26.60;;;;;;;;;;10269090;28;20525;-56
2021/12/19 14:04:39;;;;;;;32.38;23.00;;;;;;;;;;10251631;28;20083;-56
2021/12/19 14:09:39;;;;;;;42.15;27.75;;;;;;;;;;10237913;28;20550;-57
2021/12/19 14:14:40;;;;;;;61.50;42.05;;;;;;;;;;10237715;28;20089;-55
2021/12/19 14:19:40;;;;;;;53.28;34.53;;;;;;;;;;10237417;28;20072;-55
2021/12/19 14:24:41;;;;;;;31.45;22.75;;;;;;;;;;10237291;28;20121;-56
2021/12/19 14:29:42;;;;;;;64.20;39.35;;;;;;;;;;10246327;28;20332;-56
2021/12/19 14:34:41;;;;;;;47.92;30.38;;;;;;;;;;10236945;28;20533;-55
2021/12/19 14:39:39;;;;;;;67.22;42.85;;;;;;;;;;10236576;28;20091;-56
2021/12/19 14:44:38;;;;;;;30.55;22.27;;;;;;;;;;10246813;28;20045;-54
2021/12/19 14:49:38;;;;;;;39.28;25.15;;;;;;;;;;10249441;28;20442;-53
2021/12/19 14:54:37;;;;;;;52.08;35.65;;;;;;;;;;10236003;28;20045;-56
2021/12/19 14:59:35;;;;;;;31.92;22.60;;;;;;;;;;10240356;28;20083;-55
2021/12/19 15:04:33;;;;;;;56.33;33.58;;;;;;;;;;10235823;28;20057;-56
2021/12/19 15:09:33;;;;;;;52.33;29.55;;;;;;;;;;10236167;28;20083;-56
2021/12/19 15:14:31;;;;;;;42.67;27.65;;;;;;;;;;10235559;28;20048;-56
2021/12/19 15:19:29;;;;;;;36.50;26.30;;;;;;;;;;10234864;28;20072;-55
2021/12/19 15:24:28;;;;;;;29.65;23.85;;;;;;;;;;10234815;28;20072;-56
2021/12/19 15:29:27;;;;;;;33.22;25.58;;;;;;;;;;10234576;28;20080;-56
2021/12/19 15:34:26;;;;;;;25.08;19.52;;;;;;;;;;10241747;28;20533;-57
2021/12/19 15:39:24;;;;;;;28.52;20.65;;;;;;;;;;10245830;28;20072;-56
2021/12/19 15:44:22;;;;;;;23.50;16.85;;;;;;;;;;10234594;28;20072;-56
2021/12/19 15:49:23;;;;;;;52.72;32.15;;;;;;;;;;10233771;28;20041;-56
2021/12/19 15:54:28;;;;;;;36.28;24.77;;;;;;;;;;10243482;28;20076;-57
2021/12/19 15:59:26;;;;;;;35.05;23.75;;;;;;;;;;10239882;28;20084;-57
2021/12/19 16:04:26;;;;;;;18.83;14.25;;;;;;;;;;10235090;28;20088;-56
2021/12/19 16:09:24;;;;;;;30.30;22.98;;;;;;;;;;10245079;28;20095;-58
2021/12/19 16:14:23;;;;;;;43.67;28.15;;;;;;;;;;10234434;28;20065;-57
2021/12/19 16:19:21;;;;;;;51.63;30.15;;;;;;;;;;10232776;28;20521;-58
2021/12/19 16:24:23;;;;;;;98.47;54.03;;;;;;;;;;10232640;28;20060;-57
2021/12/19 16:29:21;;;;;;;89.57;44.58;;;;;;;;;;10232551;28;20065;-57
2021/12/19 16:34:19;;;;;;;51.20;32.13;;;;;;;;;;10230482;28;20085;-56
2021/12/19 16:39:18;;;;;;;39.40;26.90;;;;;;;;;;10242548;28;20064;-57
2021/12/19 16:44:19;;;;;;;38.10;26.00;;;;;;;;;;10233706;28;20522;-56
2021/12/19 16:49:18;;;;;;;44.55;27.92;;;;;;;;;;10231384;28;20073;-56
2021/12/19 16:54:16;;;;;;;50.47;34.28;;;;;;;;;;10234270;28;20069;-57
2021/12/19 16:59:14;;;;;;;36.35;25.10;;;;;;;;;;10247278;28;20489;-58
2021/12/19 17:04:14;;;;;;;71.28;45.03;;;;;;;;;;10241270;28;20096;-52
2021/12/19 17:09:32;;;;;;;45.53;30.42;;;;;;;;;;10273158;28;20053;-57
2021/12/19 17:14:30;;;;;;;33.40;23.75;;;;;;;;;;10253087;28;20095;-54
2021/12/19 17:19:30;;;;;;;41.92;31.70;;;;;;;;;;10239616;28;20076;-56
2021/12/19 17:24:29;;;;;;;34.63;28.75;;;;;;;;;;10239745;28;20073;-56
2021/12/19 17:29:27;;;;;;;30.35;24.13;;;;;;;;;;10239054;28;20473;-55
2021/12/19 17:34:25;;;;;;;24.98;18.98;;;;;;;;;;10249362;28;20069;-56
2021/12/19 17:39:26;;;;;;;22.73;17.98;;;;;;;;;;10240366;28;20073;-57
2021/12/19 17:44:25;;;;;;;28.92;19.63;;;;;;;;;;10238345;28;20092;-57
2021/12/19 17:49:23;;;;;;;33.05;23.63;;;;;;;;;;10236613;28;20455;-56
2021/12/19 17:54:21;;;;;;;35.45;22.75;;;;;;;;;;10238428;28;20084;-56
2021/12/19 17:59:21;;;;;;;32.95;23.67;;;;;;;;;;10237397;28;20492;-56
2021/12/19 18:04:20;;;;;;;33.35;24.55;;;;;;;;;;10248205;28;20072;-56
2021/12/19 18:09:19;;;;;;;27.92;18.88;;;;;;;;;;10239887;28;20061;-57
2021/12/19 18:14:17;;;;;;;27.80;21.17;;;;;;;;;;10237833;28;20064;-57
2021/12/19 18:19:17;;;;;;;28.15;23.30;;;;;;;;;;10242675;28;20084;-58
2021/12/19 18:24:15;;;;;;;27.10;21.08;;;;;;;;;;10247879;28;20310;-56
2021/12/19 18:29:14;;;;;;;31.00;22.95;;;;;;;;;;10265467;28;20072;-55
2021/12/19 18:34:15;;;;;;;39.35;28.60;;;;;;;;;;10247319;28;20088;-57
2021/12/19 18:39:17;;;;;;;41.47;28.90;;;;;;;;;;10248288;28;20065;-58
2021/12/19 18:44:20;;;;;;;26.00;20.05;;;;;;;;;;10241406;28;20062;-57
2021/12/19 18:49:28;;;;;;;26.15;17.40;;;;;;;;;;10262087;28;20048;-57
2021/12/19 18:54:41;;;;;;;28.25;20.05;;;;;;;;;;10258522;28;20461;-58
2021/12/19 18:59:43;;;;;;;28.42;21.23;;;;;;;;;;10250191;28;20081;-58
2021/12/19 19:04:42;;;;;;;35.38;24.05;;;;;;;;;;10242267;28;20072;-55
2021/12/19 19:09:44;;;;;;;57.25;33.75;;;;;;;;;;10252486;28;20069;-57
2021/12/19 19:14:43;;;;;;;31.63;23.52;;;;;;;;;;10250325;28;20068;-56
2021/12/19 19:19:42;;;;;;;37.65;23.13;;;;;;;;;;10236516;28;20085;-56
2021/12/19 19:24:42;;;;;;;27.08;19.30;;;;;;;;;;10237660;28;20077;-58
2021/12/19 19:29:40;;;;;;;29.33;20.60;;;;;;;;;;10251513;28;20135;-58
2021/12/19 19:34:41;;;;;;;31.85;22.05;;;;;;;;;;10273954;28;20163;-57
2021/12/19 19:39:52;;;;;;;34.83;22.85;;;;;;;;;;10255372;28;20103;-57
2021/12/19 19:50:10;;;;;;;41.03;23.08;;;;;;;;;;10237837;28;20121;-55
2021/12/19 19:55:08;;;;;;;25.52;17.25;;;;;;;;;;10249489;28;20080;-57
2021/12/19 20:00:13;;;;;;;29.27;19.50;;;;;;;;;;10250130;28;20099;-57
2021/12/19 20:05:16;;;;;;;23.60;16.50;;;;;;;;;;10235667;28;20057;-58
2021/12/19 20:10:14;;;;;;;28.17;19.00;;;;;;;;;;10236506;28;20077;-57
2021/12/19 20:15:14;;;;;;;31.23;20.10;;;;;;;;;;10245454;28;20071;-56
2021/12/19 20:20:13;;;;;;;22.77;18.00;;;;;;;;;;10240439;28;20088;-58
2021/12/19 20:25:12;;;;;;;19.58;15.95;;;;;;;;;;10238642;28;20452;-57
2021/12/19 20:30:11;;;;;;;18.92;14.65;;;;;;;;;;10244311;28;20065;-58
2021/12/19 20:35:11;;;;;;;21.15;15.23;;;;;;;;;;10236445;28;20079;-55
2021/12/19 20:40:10;;;;;;;22.02;16.70;;;;;;;;;;10246868;28;20068;-54
2021/12/19 20:45:10;;;;;;;23.88;15.57;;;;;;;;;;10247292;28;20081;-56
2021/12/19 20:50:09;;;;;;;25.42;17.55;;;;;;;;;;10252744;28;20076;-58
2021/12/19 20:55:11;;;;;;;25.85;16.25;;;;;;;;;;10237552;28;20073;-58
2021/12/19 21:00:11;;;;;;;29.15;18.15;;;;;;;;;;10231320;28;20085;-57
2021/12/19 21:05:10;;;;;;;26.05;17.55;;;;;;;;;;10235938;28;20436;-58
2021/12/19 21:10:13;;;;;;;27.48;17.30;;;;;;;;;;10236770;28;20145;-56
2021/12/19 21:20:31;;;;;;;23.65;16.38;;;;;;;;;;10214961;28;20521;-53
2021/12/19 21:25:31;;;;;;;26.67;17.38;;;;;;;;;;10227922;28;20257;-57
2021/12/19 21:30:30;;;;;;;25.20;16.67;;;;;;;;;;10240212;28;20073;-57
2021/12/19 21:35:55;;;;;;;19.77;13.55;;;;;;;;;;10238451;28;20087;-55
2021/12/19 21:40:54;;;;;;;20.08;15.25;;;;;;;;;;10233755;28;20081;-57
2021/12/19 21:45:54;;;;;;;21.27;15.02;;;;;;;;;;10238244;28;20072;-56
2021/12/19 21:50:53;;;;;;;23.73;16.02;;;;;;;;;;10238007;28;20089;-58
2021/12/19 21:55:51;;;;;;;15.27;12.27;;;;;;;;;;10251019;28;20539;-57
2021/12/19 22:00:51;;;;;;;20.67;14.05;;;;;;;;;;10247527;28;20103;-58
2021/12/19 22:05:49;;;;;;;23.90;15.82;;;;;;;;;;10237329;28;20100;-58
2021/12/19 22:10:48;;;;;;;21.77;13.73;;;;;;;;;;10237171;28;20093;-57
2021/12/19 22:15:46;;;;;;;16.90;12.13;;;;;;;;;;10247712;28;20073;-57
2021/12/19 22:20:46;;;;;;;14.52;11.23;;;;;;;;;;10236589;28;20083;-59
2021/12/19 22:25:44;;;;;;;16.77;11.68;;;;;;;;;;10236901;28;20088;-58
2021/12/19 22:30:46;;;;;;;14.95;11.32;;;;;;;;;;10236669;28;20092;-55
2021/12/19 22:35:46;;;;;;;15.27;12.30;;;;;;;;;;10245833;28;20564;-57
2021/12/19 22:40:44;;;;;;;14.35;11.18;;;;;;;;;;10236504;28;20077;-58
2021/12/19 22:45:43;;;;;;;11.98;10.65;;;;;;;;;;10235705;28;20050;-56
2021/12/19 22:50:41;;;;;;;15.18;11.68;;;;;;;;;;10235488;28;20073;-57
2021/12/19 22:55:41;;;;;;;24.55;16.13;;;;;;;;;;10235189;28;20080;-57
2021/12/19 23:00:47;;;;;;;14.07;11.20;;;;;;;;;;10245373;28;20087;-56
2021/12/19 23:05:45;;;;;;;18.60;15.05;;;;;;;;;;10235204;28;20417;-56
2021/12/19 23:10:47;;;;;;;14.32;11.70;;;;;;;;;;10234989;28;20168;-57
2021/12/19 23:15:45;;;;;;;19.20;16.13;;;;;;;;;;10244764;28;20076;-58
2021/12/19 23:20:44;;;;;;;18.25;14.13;;;;;;;;;;10234964;28;20105;-56
2021/12/19 23:25:42;;;;;;;13.30;11.13;;;;;;;;;;10234447;28;20107;-57
2021/12/19 23:30:42;;;;;;;14.32;12.18;;;;;;;;;;10244661;28;20064;-57
2021/12/19 23:35:46;;;;;;;18.13;13.73;;;;;;;;;;10234104;28;20119;-56
2021/12/19 23:41:08;;;;;;;13.80;11.48;;;;;;;;;;10233867;28;20088;-57
2021/12/19 23:46:08;;;;;;;13.30;11.25;;;;;;;;;;10266976;28;20477;-57
2021/12/19 23:51:06;;;;;;;16.25;10.38;;;;;;;;;;10272360;28;20498;-55
2021/12/19 23:56:06;;;;;;;16.40;12.70;;;;;;;;;;10271767;28;20072;-58
